sensor_id;sensor_type;location;lat;lon;timestamp;temperature;humidity
50758;DHT22;36732;47.980;11.652;2022-07-05T00:01:55;23.70;60.40
50758;DHT22;36732;47.980;11.652;2022-07-05T00:04:21;23.60;60.30
50758;DHT22;36732;47.980;11.652;2022-07-05T00:06:47;23.60;60.40
50758;DHT22;36732;47.980;11.652;2022-07-05T00:09:31;23.60;60.40
50758;DHT22;36732;47.980;11.652;2022-07-05T00:11:57;23.60;60.50
50758;DHT22;36732;47.980;11.652;2022-07-05T00:14:23;23.60;60.50
50758;DHT22;36732;47.980;11.652;2022-07-05T00:16:48;23.60;60.60
50758;DHT22;36732;47.980;11.652;2022-07-05T00:19:15;23.60;60.60
50758;DHT22;36732;47.980;11.652;2022-07-05T00:21:41;23.60;60.70
50758;DHT22;36732;47.980;11.652;2022-07-05T00:24:07;23.60;60.70
50758;DHT22;36732;47.980;11.652;2022-07-05T00:26:32;23.60;60.70
50758;DHT22;36732;47.980;11.652;2022-07-05T00:28:58;23.60;60.70
50758;DHT22;36732;47.980;11.652;2022-07-05T00:31:24;23.60;60.70
50758;DHT22;36732;47.980;11.652;2022-07-05T00:33:49;23.50;60.60
50758;DHT22;36732;47.980;11.652;2022-07-05T00:36:15;23.50;60.60
50758;DHT22;36732;47.980;11.652;2022-07-05T00:38:41;23.50;60.60
50758;DHT22;36732;47.980;11.652;2022-07-05T00:41:06;23.50;60.60
50758;DHT22;36732;47.980;11.652;2022-07-05T00:43:32;23.50;60.60
50758;DHT22;36732;47.980;11.652;2022-07-05T00:45:58;23.50;60.60
50758;DHT22;36732;47.980;11.652;2022-07-05T00:48:23;23.50;60.60
50758;DHT22;36732;47.980;11.652;2022-07-05T00:50:50;23.50;60.60
50758;DHT22;36732;47.980;11.652;2022-07-05T00:53:17;23.40;60.60
50758;DHT22;36732;47.980;11.652;2022-07-05T00:55:45;23.40;60.60
50758;DHT22;36732;47.980;11.652;2022-07-05T00:58:12;23.40;60.60
50758;DHT22;36732;47.980;11.652;2022-07-05T01:00:38;23.40;60.60
50758;DHT22;36732;47.980;11.652;2022-07-05T01:03:04;23.40;60.60
50758;DHT22;36732;47.980;11.652;2022-07-05T01:05:31;23.40;60.60
50758;DHT22;36732;47.980;11.652;2022-07-05T01:07:59;23.40;61.50
50758;DHT22;36732;47.980;11.652;2022-07-05T01:10:27;23.40;60.80
50758;DHT22;36732;47.980;11.652;2022-07-05T01:12:53;23.30;60.60
50758;DHT22;36732;47.980;11.652;2022-07-05T01:15:21;23.30;60.80
50758;DHT22;36732;47.980;11.652;2022-07-05T01:17:47;23.30;61.00
50758;DHT22;36732;47.980;11.652;2022-07-05T01:20:13;23.30;60.80
50758;DHT22;36732;47.980;11.652;2022-07-05T01:22:53;23.30;60.90
50758;DHT22;36732;47.980;11.652;2022-07-05T01:25:22;23.30;61.20
50758;DHT22;36732;47.980;11.652;2022-07-05T01:27:48;23.30;60.90
50758;DHT22;36732;47.980;11.652;2022-07-05T01:30:16;23.30;60.70
50758;DHT22;36732;47.980;11.652;2022-07-05T01:32:42;23.30;60.80
50758;DHT22;36732;47.980;11.652;2022-07-05T01:35:09;23.30;60.90
50758;DHT22;36732;47.980;11.652;2022-07-05T01:37:36;23.20;60.90
50758;DHT22;36732;47.980;11.652;2022-07-05T01:40:03;23.20;60.90
50758;DHT22;36732;47.980;11.652;2022-07-05T01:42:30;23.20;60.90
50758;DHT22;36732;47.980;11.652;2022-07-05T01:44:56;23.20;61.00
50758;DHT22;36732;47.980;11.652;2022-07-05T01:47:22;23.20;61.60
50758;DHT22;36732;47.980;11.652;2022-07-05T01:49:51;23.20;61.10
50758;DHT22;36732;47.980;11.652;2022-07-05T01:52:21;23.20;61.10
50758;DHT22;36732;47.980;11.652;2022-07-05T01:54:47;23.20;61.30
50758;DHT22;36732;47.980;11.652;2022-07-05T01:57:13;23.10;61.10
50758;DHT22;36732;47.980;11.652;2022-07-05T01:59:39;23.10;61.20
50758;DHT22;36732;47.980;11.652;2022-07-05T02:02:07;23.20;61.20
50758;DHT22;36732;47.980;11.652;2022-07-05T02:04:36;23.10;61.30
50758;DHT22;36732;47.980;11.652;2022-07-05T02:07:06;23.10;61.20
50758;DHT22;36732;47.980;11.652;2022-07-05T02:09:32;23.10;61.50
50758;DHT22;36732;47.980;11.652;2022-07-05T02:11:59;23.10;61.10
50758;DHT22;36732;47.980;11.652;2022-07-05T02:14:25;23.10;61.20
50758;DHT22;36732;47.980;11.652;2022-07-05T02:16:51;23.10;61.10
50758;DHT22;36732;47.980;11.652;2022-07-05T02:19:17;23.10;61.20
50758;DHT22;36732;47.980;11.652;2022-07-05T02:21:43;23.10;61.10
50758;DHT22;36732;47.980;11.652;2022-07-05T02:24:08;23.10;61.10
50758;DHT22;36732;47.980;11.652;2022-07-05T02:26:34;23.10;61.10
50758;DHT22;36732;47.980;11.652;2022-07-05T02:29:02;23.00;61.10
50758;DHT22;36732;47.980;11.652;2022-07-05T02:31:28;23.00;61.20
50758;DHT22;36732;47.980;11.652;2022-07-05T02:33:54;23.00;61.10
50758;DHT22;36732;47.980;11.652;2022-07-05T02:36:20;23.00;61.10
50758;DHT22;36732;47.980;11.652;2022-07-05T02:38:45;23.00;61.10
50758;DHT22;36732;47.980;11.652;2022-07-05T02:41:12;23.00;61.20
50758;DHT22;36732;47.980;11.652;2022-07-05T02:43:38;23.00;61.20
50758;DHT22;36732;47.980;11.652;2022-07-05T02:46:05;23.00;61.30
50758;DHT22;36732;47.980;11.652;2022-07-05T02:48:33;22.90;61.30
50758;DHT22;36732;47.980;11.652;2022-07-05T02:50:59;23.00;61.30
50758;DHT22;36732;47.980;11.652;2022-07-05T02:53:25;22.90;61.20
50758;DHT22;36732;47.980;11.652;2022-07-05T02:55:51;22.90;61.20
50758;DHT22;36732;47.980;11.652;2022-07-05T02:58:17;22.90;61.20
50758;DHT22;36732;47.980;11.652;2022-07-05T03:00:47;22.90;61.10
50758;DHT22;36732;47.980;11.652;2022-07-05T03:03:14;22.90;61.10
50758;DHT22;36732;47.980;11.652;2022-07-05T03:05:40;22.90;61.10
50758;DHT22;36732;47.980;11.652;2022-07-05T03:08:06;22.90;61.00
50758;DHT22;36732;47.980;11.652;2022-07-05T03:10:33;22.90;61.20
50758;DHT22;36732;47.980;11.652;2022-07-05T03:12:59;22.90;60.90
50758;DHT22;36732;47.980;11.652;2022-07-05T03:15:25;22.80;60.80
50758;DHT22;36732;47.980;11.652;2022-07-05T03:17:51;22.80;60.70
50758;DHT22;36732;47.980;11.652;2022-07-05T03:20:16;22.80;60.80
50758;DHT22;36732;47.980;11.652;2022-07-05T03:22:42;22.80;60.80
50758;DHT22;36732;47.980;11.652;2022-07-05T03:25:08;22.80;60.80
50758;DHT22;36732;47.980;11.652;2022-07-05T03:27:34;22.70;60.80
50758;DHT22;36732;47.980;11.652;2022-07-05T03:30:01;22.70;60.80
50758;DHT22;36732;47.980;11.652;2022-07-05T03:32:27;22.70;60.70
50758;DHT22;36732;47.980;11.652;2022-07-05T03:34:53;22.60;60.60
50758;DHT22;36732;47.980;11.652;2022-07-05T03:37:19;22.70;60.60
50758;DHT22;36732;47.980;11.652;2022-07-05T03:39:45;22.60;60.50
50758;DHT22;36732;47.980;11.652;2022-07-05T03:42:10;22.70;60.60
50758;DHT22;36732;47.980;11.652;2022-07-05T03:44:36;22.60;60.60
50758;DHT22;36732;47.980;11.652;2022-07-05T03:47:02;22.60;60.60
50758;DHT22;36732;47.980;11.652;2022-07-05T03:49:28;22.60;60.60
50758;DHT22;36732;47.980;11.652;2022-07-05T03:51:53;22.60;60.60
50758;DHT22;36732;47.980;11.652;2022-07-05T03:54:19;22.50;60.70
50758;DHT22;36732;47.980;11.652;2022-07-05T03:56:45;22.50;60.90
50758;DHT22;36732;47.980;11.652;2022-07-05T03:59:11;22.50;60.90
50758;DHT22;36732;47.980;11.652;2022-07-05T04:01:36;22.50;60.90
50758;DHT22;36732;47.980;11.652;2022-07-05T04:04:02;22.50;60.90
50758;DHT22;36732;47.980;11.652;2022-07-05T04:06:28;22.40;60.90
50758;DHT22;36732;47.980;11.652;2022-07-05T04:08:54;22.40;60.90
50758;DHT22;36732;47.980;11.652;2022-07-05T04:11:20;22.40;60.90
50758;DHT22;36732;47.980;11.652;2022-07-05T04:13:45;22.40;61.00
50758;DHT22;36732;47.980;11.652;2022-07-05T04:16:11;22.40;61.00
50758;DHT22;36732;47.980;11.652;2022-07-05T04:18:37;22.40;61.00
50758;DHT22;36732;47.980;11.652;2022-07-05T04:21:04;22.40;61.00
50758;DHT22;36732;47.980;11.652;2022-07-05T04:23:30;22.40;61.10
50758;DHT22;36732;47.980;11.652;2022-07-05T04:25:56;22.40;61.20
50758;DHT22;36732;47.980;11.652;2022-07-05T04:28:22;22.40;61.30
50758;DHT22;36732;47.980;11.652;2022-07-05T04:30:47;22.30;61.40
50758;DHT22;36732;47.980;11.652;2022-07-05T04:33:13;22.30;61.50
50758;DHT22;36732;47.980;11.652;2022-07-05T04:35:39;22.30;61.60
50758;DHT22;36732;47.980;11.652;2022-07-05T04:38:04;22.30;61.80
50758;DHT22;36732;47.980;11.652;2022-07-05T04:40:30;22.30;61.90
50758;DHT22;36732;47.980;11.652;2022-07-05T04:42:56;22.30;62.10
50758;DHT22;36732;47.980;11.652;2022-07-05T04:45:22;22.30;62.20
50758;DHT22;36732;47.980;11.652;2022-07-05T04:47:47;22.30;62.40
50758;DHT22;36732;47.980;11.652;2022-07-05T04:50:13;22.40;62.60
50758;DHT22;36732;47.980;11.652;2022-07-05T04:52:39;22.40;62.60
50758;DHT22;36732;47.980;11.652;2022-07-05T04:55:05;22.40;62.70
50758;DHT22;36732;47.980;11.652;2022-07-05T04:57:41;22.40;63.10
50758;DHT22;36732;47.980;11.652;2022-07-05T05:00:12;22.40;63.40
50758;DHT22;36732;47.980;11.652;2022-07-05T05:02:40;22.50;63.40
50758;DHT22;36732;47.980;11.652;2022-07-05T05:05:07;22.40;63.20
50758;DHT22;36732;47.980;11.652;2022-07-05T05:07:33;22.40;63.40
50758;DHT22;36732;47.980;11.652;2022-07-05T05:10:00;22.50;63.70
50758;DHT22;36732;47.980;11.652;2022-07-05T05:12:26;22.50;63.60
50758;DHT22;36732;47.980;11.652;2022-07-05T05:14:52;22.50;63.80
50758;DHT22;36732;47.980;11.652;2022-07-05T05:17:17;22.60;63.90
50758;DHT22;36732;47.980;11.652;2022-07-05T05:19:43;22.60;64.00
50758;DHT22;36732;47.980;11.652;2022-07-05T05:22:10;22.60;64.30
50758;DHT22;36732;47.980;11.652;2022-07-05T05:24:36;22.70;64.30
50758;DHT22;36732;47.980;11.652;2022-07-05T05:27:02;22.70;64.20
50758;DHT22;36732;47.980;11.652;2022-07-05T05:29:28;22.70;63.80
50758;DHT22;36732;47.980;11.652;2022-07-05T05:31:54;22.80;63.80
50758;DHT22;36732;47.980;11.652;2022-07-05T05:34:20;22.80;63.90
50758;DHT22;36732;47.980;11.652;2022-07-05T05:36:46;22.80;63.80
50758;DHT22;36732;47.980;11.652;2022-07-05T05:39:12;22.90;63.80
50758;DHT22;36732;47.980;11.652;2022-07-05T05:41:38;22.90;64.20
50758;DHT22;36732;47.980;11.652;2022-07-05T05:44:04;22.90;64.50
50758;DHT22;36732;47.980;11.652;2022-07-05T05:46:30;22.90;64.20
50758;DHT22;36732;47.980;11.652;2022-07-05T05:48:56;23.00;64.30
50758;DHT22;36732;47.980;11.652;2022-07-05T05:51:22;23.00;64.40
50758;DHT22;36732;47.980;11.652;2022-07-05T05:53:47;23.10;64.30
50758;DHT22;36732;47.980;11.652;2022-07-05T05:56:13;23.10;64.30
50758;DHT22;36732;47.980;11.652;2022-07-05T05:58:39;23.10;64.20
50758;DHT22;36732;47.980;11.652;2022-07-05T06:01:05;23.20;64.20
50758;DHT22;36732;47.980;11.652;2022-07-05T06:03:30;23.20;64.00
50758;DHT22;36732;47.980;11.652;2022-07-05T06:05:56;23.20;63.50
50758;DHT22;36732;47.980;11.652;2022-07-05T06:08:22;23.20;63.40
50758;DHT22;36732;47.980;11.652;2022-07-05T06:10:48;23.20;63.30
50758;DHT22;36732;47.980;11.652;2022-07-05T06:13:15;23.30;63.30
50758;DHT22;36732;47.980;11.652;2022-07-05T06:15:41;23.30;63.60
50758;DHT22;36732;47.980;11.652;2022-07-05T06:18:08;23.20;63.40
50758;DHT22;36732;47.980;11.652;2022-07-05T06:20:36;23.30;63.70
50758;DHT22;36732;47.980;11.652;2022-07-05T06:23:04;23.30;63.70
50758;DHT22;36732;47.980;11.652;2022-07-05T06:25:31;23.30;64.10
50758;DHT22;36732;47.980;11.652;2022-07-05T06:28:05;23.30;63.80
50758;DHT22;36732;47.980;11.652;2022-07-05T06:30:33;23.30;64.40
50758;DHT22;36732;47.980;11.652;2022-07-05T06:33:00;23.30;64.30
50758;DHT22;36732;47.980;11.652;2022-07-05T06:35:27;23.40;64.40
50758;DHT22;36732;47.980;11.652;2022-07-05T06:37:59;23.40;64.40
50758;DHT22;36732;47.980;11.652;2022-07-05T06:40:26;23.40;64.60
50758;DHT22;36732;47.980;11.652;2022-07-05T06:43:02;23.50;64.40
50758;DHT22;36732;47.980;11.652;2022-07-05T06:45:29;23.50;64.20
50758;DHT22;36732;47.980;11.652;2022-07-05T06:48:03;23.50;64.20
50758;DHT22;36732;47.980;11.652;2022-07-05T06:50:32;23.60;64.10
50758;DHT22;36732;47.980;11.652;2022-07-05T06:53:01;23.60;64.20
50758;DHT22;36732;47.980;11.652;2022-07-05T06:55:27;23.60;64.10
50758;DHT22;36732;47.980;11.652;2022-07-05T06:58:04;23.60;64.20
50758;DHT22;36732;47.980;11.652;2022-07-05T07:00:31;23.60;64.50
50758;DHT22;36732;47.980;11.652;2022-07-05T07:02:57;23.70;64.70
50758;DHT22;36732;47.980;11.652;2022-07-05T07:05:24;23.70;64.50
50758;DHT22;36732;47.980;11.652;2022-07-05T07:07:50;23.70;64.30
50758;DHT22;36732;47.980;11.652;2022-07-05T07:10:34;23.70;64.00
50758;DHT22;36732;47.980;11.652;2022-07-05T07:13:01;23.80;64.00
50758;DHT22;36732;47.980;11.652;2022-07-05T07:15:27;23.80;64.10
50758;DHT22;36732;47.980;11.652;2022-07-05T07:17:54;23.80;64.10
50758;DHT22;36732;47.980;11.652;2022-07-05T07:20:20;23.80;64.20
50758;DHT22;36732;47.980;11.652;2022-07-05T07:22:46;23.80;64.10
50758;DHT22;36732;47.980;11.652;2022-07-05T07:25:11;23.90;64.00
50758;DHT22;36732;47.980;11.652;2022-07-05T07:27:45;23.90;64.30
50758;DHT22;36732;47.980;11.652;2022-07-05T07:30:16;23.90;64.80
50758;DHT22;36732;47.980;11.652;2022-07-05T07:32:45;23.90;64.30
50758;DHT22;36732;47.980;11.652;2022-07-05T07:35:11;23.90;64.20
50758;DHT22;36732;47.980;11.652;2022-07-05T07:37:38;24.00;64.20
50758;DHT22;36732;47.980;11.652;2022-07-05T07:40:04;24.00;64.40
50758;DHT22;36732;47.980;11.652;2022-07-05T07:42:31;24.00;64.80
50758;DHT22;36732;47.980;11.652;2022-07-05T07:44:57;24.00;64.60
50758;DHT22;36732;47.980;11.652;2022-07-05T07:47:23;24.00;64.20
50758;DHT22;36732;47.980;11.652;2022-07-05T07:49:49;24.10;64.10
50758;DHT22;36732;47.980;11.652;2022-07-05T07:52:14;24.10;64.40
50758;DHT22;36732;47.980;11.652;2022-07-05T07:54:40;24.10;64.20
50758;DHT22;36732;47.980;11.652;2022-07-05T07:57:06;24.10;64.10
50758;DHT22;36732;47.980;11.652;2022-07-05T07:59:32;24.20;64.60
50758;DHT22;36732;47.980;11.652;2022-07-05T08:01:58;24.20;64.50
50758;DHT22;36732;47.980;11.652;2022-07-05T08:04:24;24.20;64.00
50758;DHT22;36732;47.980;11.652;2022-07-05T08:06:50;24.20;63.80
50758;DHT22;36732;47.980;11.652;2022-07-05T08:09:16;24.20;63.70
50758;DHT22;36732;47.980;11.652;2022-07-05T08:11:42;24.20;63.70
50758;DHT22;36732;47.980;11.652;2022-07-05T08:14:08;24.20;64.10
50758;DHT22;36732;47.980;11.652;2022-07-05T08:16:34;24.20;64.20
50758;DHT22;36732;47.980;11.652;2022-07-05T08:18:59;24.30;64.40
50758;DHT22;36732;47.980;11.652;2022-07-05T08:21:44;24.30;64.00
50758;DHT22;36732;47.980;11.652;2022-07-05T08:24:11;24.30;63.80
50758;DHT22;36732;47.980;11.652;2022-07-05T08:26:39;24.30;63.60
50758;DHT22;36732;47.980;11.652;2022-07-05T08:29:08;24.30;62.60
50758;DHT22;36732;47.980;11.652;2022-07-05T08:31:39;24.30;62.40
50758;DHT22;36732;47.980;11.652;2022-07-05T08:34:06;24.30;62.40
50758;DHT22;36732;47.980;11.652;2022-07-05T08:36:32;24.30;61.90
50758;DHT22;36732;47.980;11.652;2022-07-05T08:38:58;24.40;61.90
50758;DHT22;36732;47.980;11.652;2022-07-05T08:41:24;24.40;61.70
50758;DHT22;36732;47.980;11.652;2022-07-05T08:43:51;24.40;61.80
50758;DHT22;36732;47.980;11.652;2022-07-05T08:46:18;24.40;61.70
50758;DHT22;36732;47.980;11.652;2022-07-05T08:48:48;24.40;61.80
50758;DHT22;36732;47.980;11.652;2022-07-05T08:51:17;24.40;60.50
50758;DHT22;36732;47.980;11.652;2022-07-05T08:53:44;24.50;59.40
50758;DHT22;36732;47.980;11.652;2022-07-05T08:56:12;24.50;59.50
50758;DHT22;36732;47.980;11.652;2022-07-05T08:58:39;24.50;59.70
50758;DHT22;36732;47.980;11.652;2022-07-05T09:01:06;24.50;59.80
50758;DHT22;36732;47.980;11.652;2022-07-05T09:03:42;24.50;59.30
50758;DHT22;36732;47.980;11.652;2022-07-05T09:06:11;24.50;58.70
50758;DHT22;36732;47.980;11.652;2022-07-05T09:08:39;24.50;59.00
50758;DHT22;36732;47.980;11.652;2022-07-05T09:11:10;24.50;59.00
50758;DHT22;36732;47.980;11.652;2022-07-05T09:13:39;24.50;58.40
50758;DHT22;36732;47.980;11.652;2022-07-05T09:16:07;24.50;58.70
50758;DHT22;36732;47.980;11.652;2022-07-05T09:18:51;24.60;58.90
50758;DHT22;36732;47.980;11.652;2022-07-05T09:21:24;24.50;57.60
50758;DHT22;36732;47.980;11.652;2022-07-05T09:24:02;24.60;57.90
50758;DHT22;36732;47.980;11.652;2022-07-05T09:26:44;24.60;57.80
50758;DHT22;36732;47.980;11.652;2022-07-05T09:29:22;24.60;57.30
50758;DHT22;36732;47.980;11.652;2022-07-05T09:31:49;24.60;56.40
50758;DHT22;36732;47.980;11.652;2022-07-05T09:34:17;24.60;57.10
50758;DHT22;36732;47.980;11.652;2022-07-05T09:37:03;24.70;57.00
50758;DHT22;36732;47.980;11.652;2022-07-05T09:42:23;24.70;57.90
50758;DHT22;36732;47.980;11.652;2022-07-05T09:44:50;24.70;57.50
50758;DHT22;36732;47.980;11.652;2022-07-05T09:47:30;24.70;57.60
50758;DHT22;36732;47.980;11.652;2022-07-05T09:49:57;24.70;56.10
50758;DHT22;36732;47.980;11.652;2022-07-05T09:52:40;24.80;55.10
50758;DHT22;36732;47.980;11.652;2022-07-05T09:55:16;24.80;53.60
50758;DHT22;36732;47.980;11.652;2022-07-05T09:57:44;24.80;53.70
50758;DHT22;36732;47.980;11.652;2022-07-05T10:00:19;24.80;54.80
50758;DHT22;36732;47.980;11.652;2022-07-05T10:02:55;24.80;54.80
50758;DHT22;36732;47.980;11.652;2022-07-05T10:05:31;24.80;54.80
50758;DHT22;36732;47.980;11.652;2022-07-05T10:07:59;24.90;55.80
50758;DHT22;36732;47.980;11.652;2022-07-05T10:10:30;24.90;56.30
50758;DHT22;36732;47.980;11.652;2022-07-05T10:12:58;24.90;56.20
50758;DHT22;36732;47.980;11.652;2022-07-05T10:15:35;24.90;56.60
50758;DHT22;36732;47.980;11.652;2022-07-05T10:18:22;24.90;56.50
50758;DHT22;36732;47.980;11.652;2022-07-05T10:20:59;24.90;56.30
50758;DHT22;36732;47.980;11.652;2022-07-05T10:23:25;25.00;56.60
50758;DHT22;36732;47.980;11.652;2022-07-05T10:25:51;25.00;56.50
50758;DHT22;36732;47.980;11.652;2022-07-05T10:28:18;25.00;56.50
50758;DHT22;36732;47.980;11.652;2022-07-05T10:30:46;25.00;56.00
50758;DHT22;36732;47.980;11.652;2022-07-05T10:33:17;25.10;56.10
50758;DHT22;36732;47.980;11.652;2022-07-05T10:35:46;25.10;56.00
50758;DHT22;36732;47.980;11.652;2022-07-05T10:38:12;25.10;56.10
50758;DHT22;36732;47.980;11.652;2022-07-05T10:40:40;25.10;55.30
50758;DHT22;36732;47.980;11.652;2022-07-05T10:43:09;25.10;54.60
50758;DHT22;36732;47.980;11.652;2022-07-05T10:45:38;25.10;54.80
50758;DHT22;36732;47.980;11.652;2022-07-05T10:48:23;25.10;53.40
50758;DHT22;36732;47.980;11.652;2022-07-05T10:53:22;25.10;53.40
50758;DHT22;36732;47.980;11.652;2022-07-05T10:58:36;25.20;52.60
50758;DHT22;36732;47.980;11.652;2022-07-05T11:04:05;25.20;52.10
50758;DHT22;36732;47.980;11.652;2022-07-05T11:12:11;25.20;52.90
50758;DHT22;36732;47.980;11.652;2022-07-05T11:14:32;25.20;53.30
50758;DHT22;36732;47.980;11.652;2022-07-05T11:17:19;25.30;53.70
50758;DHT22;36732;47.980;11.652;2022-07-05T11:22:27;25.30;53.70
50758;DHT22;36732;47.980;11.652;2022-07-05T11:24:55;25.30;53.80
50758;DHT22;36732;47.980;11.652;2022-07-05T11:27:21;25.30;53.70
50758;DHT22;36732;47.980;11.652;2022-07-05T11:29:49;25.30;52.40
50758;DHT22;36732;47.980;11.652;2022-07-05T11:32:23;25.30;52.10
50758;DHT22;36732;47.980;11.652;2022-07-05T11:35:17;25.40;51.80
50758;DHT22;36732;47.980;11.652;2022-07-05T11:40:35;25.40;52.70
50758;DHT22;36732;47.980;11.652;2022-07-05T11:43:04;25.40;53.00
50758;DHT22;36732;47.980;11.652;2022-07-05T11:45:32;25.40;53.20
50758;DHT22;36732;47.980;11.652;2022-07-05T11:47:58;25.40;53.00
50758;DHT22;36732;47.980;11.652;2022-07-05T11:50:32;25.40;53.20
50758;DHT22;36732;47.980;11.652;2022-07-05T11:53:02;25.40;53.10
50758;DHT22;36732;47.980;11.652;2022-07-05T11:55:28;25.40;53.30
50758;DHT22;36732;47.980;11.652;2022-07-05T11:57:57;25.40;53.70
50758;DHT22;36732;47.980;11.652;2022-07-05T12:00:34;25.40;53.70
50758;DHT22;36732;47.980;11.652;2022-07-05T12:03:01;25.40;53.40
50758;DHT22;36732;47.980;11.652;2022-07-05T12:05:31;25.40;53.60
50758;DHT22;36732;47.980;11.652;2022-07-05T12:07:58;25.40;53.60
50758;DHT22;36732;47.980;11.652;2022-07-05T12:10:24;25.50;53.60
50758;DHT22;36732;47.980;11.652;2022-07-05T12:13:09;25.50;53.50
50758;DHT22;36732;47.980;11.652;2022-07-05T12:15:36;25.50;53.70
50758;DHT22;36732;47.980;11.652;2022-07-05T12:18:04;25.50;53.60
50758;DHT22;36732;47.980;11.652;2022-07-05T12:20:32;25.50;53.30
50758;DHT22;36732;47.980;11.652;2022-07-05T12:23:00;25.50;53.60
50758;DHT22;36732;47.980;11.652;2022-07-05T12:25:27;25.60;53.70
50758;DHT22;36732;47.980;11.652;2022-07-05T12:27:55;25.60;53.40
50758;DHT22;36732;47.980;11.652;2022-07-05T12:30:22;25.60;53.20
50758;DHT22;36732;47.980;11.652;2022-07-05T12:35:38;25.60;53.50
50758;DHT22;36732;47.980;11.652;2022-07-05T12:40:34;25.60;53.70
50758;DHT22;36732;47.980;11.652;2022-07-05T12:43:08;25.70;53.60
50758;DHT22;36732;47.980;11.652;2022-07-05T12:45:41;25.70;53.30
50758;DHT22;36732;47.980;11.652;2022-07-05T12:48:10;25.70;53.20
50758;DHT22;36732;47.980;11.652;2022-07-05T12:50:50;25.70;53.00
50758;DHT22;36732;47.980;11.652;2022-07-05T12:53:17;25.70;53.00
50758;DHT22;36732;47.980;11.652;2022-07-05T12:56:05;25.70;53.10
50758;DHT22;36732;47.980;11.652;2022-07-05T12:59:03;25.80;53.40
50758;DHT22;36732;47.980;11.652;2022-07-05T13:01:33;25.80;52.90
50758;DHT22;36732;47.980;11.652;2022-07-05T13:04:10;25.80;53.10
50758;DHT22;36732;47.980;11.652;2022-07-05T13:07:03;25.80;52.40
50758;DHT22;36732;47.980;11.652;2022-07-05T13:14:34;26.00;52.50
50758;DHT22;36732;47.980;11.652;2022-07-05T13:17:01;26.00;52.70
50758;DHT22;36732;47.980;11.652;2022-07-05T13:19:27;26.10;52.70
50758;DHT22;36732;47.980;11.652;2022-07-05T13:21:53;26.10;52.70
50758;DHT22;36732;47.980;11.652;2022-07-05T13:24:18;26.20;52.80
50758;DHT22;36732;47.980;11.652;2022-07-05T13:26:45;26.20;52.40
50758;DHT22;36732;47.980;11.652;2022-07-05T13:29:10;26.20;51.90
50758;DHT22;36732;47.980;11.652;2022-07-05T13:31:36;26.40;52.00
50758;DHT22;36732;47.980;11.652;2022-07-05T13:34:02;26.50;52.60
50758;DHT22;36732;47.980;11.652;2022-07-05T13:36:27;26.60;52.30
50758;DHT22;36732;47.980;11.652;2022-07-05T13:38:53;26.80;51.80
50758;DHT22;36732;47.980;11.652;2022-07-05T13:41:19;26.90;51.60
50758;DHT22;36732;47.980;11.652;2022-07-05T13:43:45;27.00;51.40
50758;DHT22;36732;47.980;11.652;2022-07-05T13:46:12;27.10;51.40
50758;DHT22;36732;47.980;11.652;2022-07-05T13:48:38;27.10;50.70
50758;DHT22;36732;47.980;11.652;2022-07-05T13:51:05;27.10;50.60
50758;DHT22;36732;47.980;11.652;2022-07-05T13:53:31;27.10;50.70
50758;DHT22;36732;47.980;11.652;2022-07-05T13:55:57;27.20;49.80
50758;DHT22;36732;47.980;11.652;2022-07-05T13:58:23;27.30;50.40
50758;DHT22;36732;47.980;11.652;2022-07-05T14:00:49;27.40;49.90
50758;DHT22;36732;47.980;11.652;2022-07-05T14:03:16;27.50;49.80
50758;DHT22;36732;47.980;11.652;2022-07-05T14:05:43;27.50;49.50
50758;DHT22;36732;47.980;11.652;2022-07-05T14:08:12;27.60;49.40
50758;DHT22;36732;47.980;11.652;2022-07-05T14:10:39;27.60;49.40
50758;DHT22;36732;47.980;11.652;2022-07-05T14:13:06;27.70;49.10
50758;DHT22;36732;47.980;11.652;2022-07-05T14:15:32;27.70;48.80
50758;DHT22;36732;47.980;11.652;2022-07-05T14:17:58;27.70;48.70
50758;DHT22;36732;47.980;11.652;2022-07-05T14:20:28;27.70;48.80
50758;DHT22;36732;47.980;11.652;2022-07-05T14:22:54;27.80;48.70
50758;DHT22;36732;47.980;11.652;2022-07-05T14:25:20;27.90;49.10
50758;DHT22;36732;47.980;11.652;2022-07-05T14:27:46;28.00;49.20
50758;DHT22;36732;47.980;11.652;2022-07-05T14:30:11;28.00;48.10
50758;DHT22;36732;47.980;11.652;2022-07-05T14:32:37;28.10;48.00
50758;DHT22;36732;47.980;11.652;2022-07-05T14:35:04;28.20;48.10
50758;DHT22;36732;47.980;11.652;2022-07-05T14:37:31;28.30;48.10
50758;DHT22;36732;47.980;11.652;2022-07-05T14:39:56;28.50;48.00
50758;DHT22;36732;47.980;11.652;2022-07-05T14:42:22;28.50;47.50
50758;DHT22;36732;47.980;11.652;2022-07-05T14:44:48;28.60;47.30
50758;DHT22;36732;47.980;11.652;2022-07-05T14:47:13;28.60;47.10
50758;DHT22;36732;47.980;11.652;2022-07-05T14:49:39;28.60;47.10
50758;DHT22;36732;47.980;11.652;2022-07-05T14:52:05;28.60;47.20
50758;DHT22;36732;47.980;11.652;2022-07-05T14:54:31;28.60;46.30
50758;DHT22;36732;47.980;11.652;2022-07-05T14:56:57;28.50;46.30
50758;DHT22;36732;47.980;11.652;2022-07-05T14:59:22;28.50;46.80
50758;DHT22;36732;47.980;11.652;2022-07-05T15:01:48;28.40;46.30
50758;DHT22;36732;47.980;11.652;2022-07-05T15:04:14;28.40;46.50
50758;DHT22;36732;47.980;11.652;2022-07-05T15:06:40;28.30;46.30
50758;DHT22;36732;47.980;11.652;2022-07-05T15:09:07;28.30;46.30
50758;DHT22;36732;47.980;11.652;2022-07-05T15:11:33;28.30;46.70
50758;DHT22;36732;47.980;11.652;2022-07-05T15:13:58;28.30;46.80
50758;DHT22;36732;47.980;11.652;2022-07-05T15:16:27;28.30;47.00
50758;DHT22;36732;47.980;11.652;2022-07-05T15:18:53;28.30;46.90
50758;DHT22;36732;47.980;11.652;2022-07-05T15:21:19;28.40;47.00
50758;DHT22;36732;47.980;11.652;2022-07-05T15:23:44;28.40;46.90
50758;DHT22;36732;47.980;11.652;2022-07-05T15:26:10;28.50;46.70
50758;DHT22;36732;47.980;11.652;2022-07-05T15:28:36;28.50;46.40
50758;DHT22;36732;47.980;11.652;2022-07-05T15:31:01;28.50;46.20
50758;DHT22;36732;47.980;11.652;2022-07-05T15:33:27;28.50;46.30
50758;DHT22;36732;47.980;11.652;2022-07-05T15:35:58;28.60;46.30
50758;DHT22;36732;47.980;11.652;2022-07-05T15:38:24;28.60;46.30
50758;DHT22;36732;47.980;11.652;2022-07-05T15:40:52;28.70;46.10
50758;DHT22;36732;47.980;11.652;2022-07-05T15:43:18;28.70;46.00
50758;DHT22;36732;47.980;11.652;2022-07-05T15:45:45;28.70;45.90
50758;DHT22;36732;47.980;11.652;2022-07-05T15:48:11;28.80;45.70
50758;DHT22;36732;47.980;11.652;2022-07-05T15:50:37;28.80;45.40
50758;DHT22;36732;47.980;11.652;2022-07-05T15:53:02;28.80;45.20